sensor_id;sensor_type;location;lat;lon;timestamp;pressure;altitude;pressure_sealevel;temperature;humidity
28000;BME280;15328;50.860;10.562;2022-11-15T00:04:25;96241.91;;;11.54;56.69
28000;BME280;15328;50.860;10.562;2022-11-15T00:09:26;96240.81;;;11.43;57.00
28000;BME280;15328;50.860;10.562;2022-11-15T00:14:26;96221.88;;;11.51;56.73
28000;BME280;15328;50.860;10.562;2022-11-15T00:19:26;96218.44;;;11.32;57.82
28000;BME280;15328;50.860;10.562;2022-11-15T00:24:27;96221.81;;;11.39;57.83
28000;BME280;15328;50.860;10.562;2022-11-15T00:29:27;96214.88;;;11.50;57.30
28000;BME280;15328;50.860;10.562;2022-11-15T00:34:27;96213.06;;;11.51;57.12
28000;BME280;15328;50.860;10.562;2022-11-15T00:39:28;96207.34;;;11.47;57.14
28000;BME280;15328;50.860;10.562;2022-11-15T00:44:28;96204.38;;;11.55;57.06
28000;BME280;15328;50.860;10.562;2022-11-15T00:49:28;96203.66;;;11.48;57.07
28000;BME280;15328;50.860;10.562;2022-11-15T00:54:29;96205.19;;;11.56;56.51
28000;BME280;15328;50.860;10.562;2022-11-15T00:59:29;96212.44;;;11.37;57.06
28000;BME280;15328;50.860;10.562;2022-11-15T01:04:30;96198.25;;;11.55;56.92
28000;BME280;15328;50.860;10.562;2022-11-15T01:09:30;96199.53;;;11.52;56.86
28000;BME280;15328;50.860;10.562;2022-11-15T01:14:30;96205.44;;;11.54;57.07
28000;BME280;15328;50.860;10.562;2022-11-15T01:19:31;96199.53;;;11.64;56.21
28000;BME280;15328;50.860;10.562;2022-11-15T01:24:31;96185.97;;;11.54;56.67
28000;BME280;15328;50.860;10.562;2022-11-15T01:29:32;96179.91;;;11.46;56.91
28000;BME280;15328;50.860;10.562;2022-11-15T01:34:32;96180.06;;;11.63;56.32
28000;BME280;15328;50.860;10.562;2022-11-15T01:39:33;96168.78;;;11.50;56.81
28000;BME280;15328;50.860;10.562;2022-11-15T01:49:35;96185.97;;;11.65;56.05
28000;BME280;15328;50.860;10.562;2022-11-15T01:54:38;96174.72;;;11.63;56.14
28000;BME280;15328;50.860;10.562;2022-11-15T01:59:41;96164.53;;;11.60;56.33
28000;BME280;15328;50.860;10.562;2022-11-15T02:04:46;96154.22;;;11.64;56.07
28000;BME280;15328;50.860;10.562;2022-11-15T02:09:47;96161.19;;;11.65;55.62
28000;BME280;15328;50.860;10.562;2022-11-15T02:14:53;96139.66;;;11.55;55.71
28000;BME280;15328;50.860;10.562;2022-11-15T02:20:19;96141.22;;;11.44;55.80
28000;BME280;15328;50.860;10.562;2022-11-15T02:42:17;96138.44;;;11.27;56.56
28000;BME280;15328;50.860;10.562;2022-11-15T02:47:43;96124.97;;;11.22;56.52
28000;BME280;15328;50.860;10.562;2022-11-15T02:52:50;96121.75;;;11.20;56.59
28000;BME280;15328;50.860;10.562;2022-11-15T02:57:56;96112.72;;;11.21;56.36
28000;BME280;15328;50.860;10.562;2022-11-15T03:03:10;96109.00;;;11.22;56.15
28000;BME280;15328;50.860;10.562;2022-11-15T03:13:52;96124.28;;;11.15;56.84
28000;BME280;15328;50.860;10.562;2022-11-15T03:24:29;96121.25;;;11.00;56.41
28000;BME280;15328;50.860;10.562;2022-11-15T03:29:33;96129.47;;;10.98;56.63
28000;BME280;15328;50.860;10.562;2022-11-15T03:34:47;96132.53;;;10.83;56.56
28000;BME280;15328;50.860;10.562;2022-11-15T03:39:50;96130.69;;;10.84;56.60
28000;BME280;15328;50.860;10.562;2022-11-15T03:45:13;96136.69;;;10.79;57.37
28000;BME280;15328;50.860;10.562;2022-11-15T03:50:18;96135.16;;;10.72;57.42
28000;BME280;15328;50.860;10.562;2022-11-15T03:55:20;96133.59;;;10.64;57.38
28000;BME280;15328;50.860;10.562;2022-11-15T04:00:21;96122.44;;;10.74;57.31
28000;BME280;15328;50.860;10.562;2022-11-15T04:05:21;96132.34;;;10.67;57.58
28000;BME280;15328;50.860;10.562;2022-11-15T04:10:22;96127.63;;;10.69;56.78
28000;BME280;15328;50.860;10.562;2022-11-15T04:15:23;96130.00;;;10.59;57.75
28000;BME280;15328;50.860;10.562;2022-11-15T04:20:26;96120.28;;;10.52;57.38
28000;BME280;15328;50.860;10.562;2022-11-15T04:25:46;96111.56;;;10.45;57.78
28000;BME280;15328;50.860;10.562;2022-11-15T04:30:49;96107.75;;;10.41;58.08
28000;BME280;15328;50.860;10.562;2022-11-15T04:35:50;96105.22;;;10.46;57.93
28000;BME280;15328;50.860;10.562;2022-11-15T04:41:09;96104.22;;;10.29;58.53
28000;BME280;15328;50.860;10.562;2022-11-15T04:46:09;96105.47;;;10.27;58.53
28000;BME280;15328;50.860;10.562;2022-11-15T04:51:10;96096.97;;;10.18;58.85
28000;BME280;15328;50.860;10.562;2022-11-15T04:56:10;96097.59;;;10.13;59.04
28000;BME280;15328;50.860;10.562;2022-11-15T05:01:13;96095.78;;;10.14;59.13
28000;BME280;15328;50.860;10.562;2022-11-15T05:06:14;96092.69;;;10.17;58.99
28000;BME280;15328;50.860;10.562;2022-11-15T05:11:15;96087.31;;;10.24;58.51
28000;BME280;15328;50.860;10.562;2022-11-15T05:16:15;96085.47;;;10.24;58.97
28000;BME280;15328;50.860;10.562;2022-11-15T05:21:16;96072.31;;;10.29;58.25
28000;BME280;15328;50.860;10.562;2022-11-15T05:26:17;96072.88;;;10.31;58.56
28000;BME280;15328;50.860;10.562;2022-11-15T05:31:18;96066.88;;;10.36;58.57
28000;BME280;15328;50.860;10.562;2022-11-15T05:36:27;96065.41;;;10.40;58.49
28000;BME280;15328;50.860;10.562;2022-11-15T05:41:42;96056.53;;;10.46;57.78
28000;BME280;15328;50.860;10.562;2022-11-15T05:46:45;96061.66;;;10.59;57.44
28000;BME280;15328;50.860;10.562;2022-11-15T05:51:47;96059.34;;;10.51;57.69
28000;BME280;15328;50.860;10.562;2022-11-15T05:56:48;96059.19;;;10.46;58.14
28000;BME280;15328;50.860;10.562;2022-11-15T06:01:49;96050.19;;;10.47;58.09
28000;BME280;15328;50.860;10.562;2022-11-15T06:06:50;96054.00;;;10.51;57.40
28000;BME280;15328;50.860;10.562;2022-11-15T06:11:50;96055.50;;;10.47;57.89
28000;BME280;15328;50.860;10.562;2022-11-15T06:16:50;96058.84;;;10.42;57.79
28000;BME280;15328;50.860;10.562;2022-11-15T06:21:51;96045.25;;;10.62;57.63
28000;BME280;15328;50.860;10.562;2022-11-15T06:26:52;96052.53;;;10.67;57.08
28000;BME280;15328;50.860;10.562;2022-11-15T06:31:52;96055.34;;;10.72;56.94
28000;BME280;15328;50.860;10.562;2022-11-15T06:36:53;96065.53;;;10.75;56.83
28000;BME280;15328;50.860;10.562;2022-11-15T06:41:53;96072.03;;;10.79;56.51
28000;BME280;15328;50.860;10.562;2022-11-15T06:46:54;96074.09;;;10.77;56.54
28000;BME280;15328;50.860;10.562;2022-11-15T06:51:54;96082.78;;;10.84;56.67
28000;BME280;15328;50.860;10.562;2022-11-15T06:56:54;96090.66;;;10.79;56.48
28000;BME280;15328;50.860;10.562;2022-11-15T07:01:55;96094.38;;;10.90;56.03
28000;BME280;15328;50.860;10.562;2022-11-15T07:06:55;96104.56;;;10.93;56.37
28000;BME280;15328;50.860;10.562;2022-11-15T07:11:55;96103.25;;;10.83;56.30
28000;BME280;15328;50.860;10.562;2022-11-15T07:16:56;96107.09;;;10.88;56.21
28000;BME280;15328;50.860;10.562;2022-11-15T07:21:56;96107.44;;;10.91;56.13
28000;BME280;15328;50.860;10.562;2022-11-15T07:26:57;96104.94;;;10.96;55.83
28000;BME280;15328;50.860;10.562;2022-11-15T07:31:57;96104.50;;;11.11;56.02
28000;BME280;15328;50.860;10.562;2022-11-15T07:36:57;96109.75;;;11.29;54.41
28000;BME280;15328;50.860;10.562;2022-11-15T07:41:59;96095.50;;;11.24;54.36
28000;BME280;15328;50.860;10.562;2022-11-15T07:47:18;96080.44;;;11.41;54.11
28000;BME280;15328;50.860;10.562;2022-11-15T07:52:18;96079.63;;;11.40;54.21
28000;BME280;15328;50.860;10.562;2022-11-15T07:57:19;96073.72;;;11.50;53.73
28000;BME280;15328;50.860;10.562;2022-11-15T08:02:19;96067.16;;;11.53;53.86
28000;BME280;15328;50.860;10.562;2022-11-15T08:07:19;96071.63;;;11.75;54.03
28000;BME280;15328;50.860;10.562;2022-11-15T08:12:21;96063.41;;;11.89;53.16
28000;BME280;15328;50.860;10.562;2022-11-15T08:17:25;96053.06;;;12.04;52.98
28000;BME280;15328;50.860;10.562;2022-11-15T08:22:25;96056.53;;;12.16;52.75
28000;BME280;15328;50.860;10.562;2022-11-15T08:27:26;96063.66;;;12.27;52.26
28000;BME280;15328;50.860;10.562;2022-11-15T08:32:26;96064.00;;;12.31;51.74
28000;BME280;15328;50.860;10.562;2022-11-15T08:37:26;96063.41;;;12.41;51.42
28000;BME280;15328;50.860;10.562;2022-11-15T08:42:27;96058.47;;;12.49;50.56
28000;BME280;15328;50.860;10.562;2022-11-15T08:47:27;96054.69;;;12.45;50.83
28000;BME280;15328;50.860;10.562;2022-11-15T08:52:27;96048.47;;;12.56;50.53
28000;BME280;15328;50.860;10.562;2022-11-15T08:57:28;96044.63;;;12.64;50.38
28000;BME280;15328;50.860;10.562;2022-11-15T09:02:30;96047.47;;;12.74;50.44
28000;BME280;15328;50.860;10.562;2022-11-15T09:07:30;96049.31;;;12.74;50.64
28000;BME280;15328;50.860;10.562;2022-11-15T09:12:31;96042.72;;;12.93;49.50
28000;BME280;15328;50.860;10.562;2022-11-15T09:17:32;96045.59;;;13.20;48.97
28000;BME280;15328;50.860;10.562;2022-11-15T09:22:32;96033.50;;;13.34;48.67
28000;BME280;15328;50.860;10.562;2022-11-15T09:27:33;96037.44;;;13.65;47.67
28000;BME280;15328;50.860;10.562;2022-11-15T09:32:34;96038.81;;;13.89;47.22
28000;BME280;15328;50.860;10.562;2022-11-15T09:37:34;96032.28;;;14.24;46.68
28000;BME280;15328;50.860;10.562;2022-11-15T09:47:55;96020.38;;;15.97;43.96
28000;BME280;15328;50.860;10.562;2022-11-15T09:52:59;96028.63;;;16.63;42.95
28000;BME280;15328;50.860;10.562;2022-11-15T09:59:01;96022.25;;;17.20;41.87
28000;BME280;15328;50.860;10.562;2022-11-15T10:03:34;96016.56;;;17.82;40.98
28000;BME280;15328;50.860;10.562;2022-11-15T10:08:46;96019.81;;;18.44;39.27
28000;BME280;15328;50.860;10.562;2022-11-15T10:13:52;96018.13;;;19.36;38.18
28000;BME280;15328;50.860;10.562;2022-11-15T10:24:01;96008.44;;;20.79;35.50
28000;BME280;15328;50.860;10.562;2022-11-15T10:29:01;96000.38;;;21.11;34.16
28000;BME280;15328;50.860;10.562;2022-11-15T10:34:14;96000.16;;;21.08;33.83
28000;BME280;15328;50.860;10.562;2022-11-15T10:39:14;95996.72;;;21.02;34.04
28000;BME280;15328;50.860;10.562;2022-11-15T10:44:27;95982.66;;;20.86;33.92
28000;BME280;15328;50.860;10.562;2022-11-15T10:49:30;95975.28;;;20.73;34.04
28000;BME280;15328;50.860;10.562;2022-11-15T10:55:04;95970.16;;;20.72;34.09
28000;BME280;15328;50.860;10.562;2022-11-15T11:00:25;95956.34;;;20.54;33.05
28000;BME280;15328;50.860;10.562;2022-11-15T11:05:32;95955.84;;;20.52;33.61
28000;BME280;15328;50.860;10.562;2022-11-15T11:10:37;95953.47;;;20.27;33.92
28000;BME280;15328;50.860;10.562;2022-11-15T11:15:38;95956.41;;;20.30;34.13
28000;BME280;15328;50.860;10.562;2022-11-15T11:20:45;95939.78;;;20.42;34.25
28000;BME280;15328;50.860;10.562;2022-11-15T11:26:15;95935.28;;;20.56;33.98
28000;BME280;15328;50.860;10.562;2022-11-15T11:31:31;95940.53;;;20.66;32.61
28000;BME280;15328;50.860;10.562;2022-11-15T11:37:17;95927.88;;;20.43;33.44
28000;BME280;15328;50.860;10.562;2022-11-15T11:42:03;95922.03;;;20.36;33.49
28000;BME280;15328;50.860;10.562;2022-11-15T11:47:21;95910.22;;;20.32;34.08
28000;BME280;15328;50.860;10.562;2022-11-15T12:13:30;95908.31;;;24.31;28.58
28000;BME280;15328;50.860;10.562;2022-11-15T12:18:34;95901.47;;;25.75;27.05
28000;BME280;15328;50.860;10.562;2022-11-15T12:23:45;95888.22;;;27.53;25.00
28000;BME280;15328;50.860;10.562;2022-11-15T12:28:53;95897.81;;;27.26;24.35
28000;BME280;15328;50.860;10.562;2022-11-15T12:33:56;95885.94;;;27.09;24.75
28000;BME280;15328;50.860;10.562;2022-11-15T12:39:05;95890.78;;;28.71;23.11
28000;BME280;15328;50.860;10.562;2022-11-15T13:20:22;95854.81;;;21.46;29.70
28000;BME280;15328;50.860;10.562;2022-11-15T13:25:51;95850.38;;;20.44;31.71
28000;BME280;15328;50.860;10.562;2022-11-15T13:30:56;95842.28;;;19.63;32.73
28000;BME280;15328;50.860;10.562;2022-11-15T13:36:07;95832.81;;;18.94;34.09
28000;BME280;15328;50.860;10.562;2022-11-15T13:41:20;95825.88;;;18.20;35.50
28000;BME280;15328;50.860;10.562;2022-11-15T13:46:32;95823.50;;;17.59;36.90
28000;BME280;15328;50.860;10.562;2022-11-15T13:51:42;95816.41;;;17.19;37.70
28000;BME280;15328;50.860;10.562;2022-11-15T13:56:48;95810.56;;;16.91;38.50
28000;BME280;15328;50.860;10.562;2022-11-15T14:01:50;95806.84;;;16.62;39.43
28000;BME280;15328;50.860;10.562;2022-11-15T14:06:55;95806.31;;;16.34;40.08
28000;BME280;15328;50.860;10.562;2022-11-15T14:11:57;95803.09;;;16.12;40.71
28000;BME280;15328;50.860;10.562;2022-11-15T14:16:59;95795.06;;;15.92;41.55
28000;BME280;15328;50.860;10.562;2022-11-15T14:22:19;95801.72;;;15.84;41.78
28000;BME280;15328;50.860;10.562;2022-11-15T14:27:27;95794.47;;;15.69;42.07
28000;BME280;15328;50.860;10.562;2022-11-15T14:32:30;95787.22;;;15.65;42.29
28000;BME280;15328;50.860;10.562;2022-11-15T14:37:37;95781.25;;;15.48;43.42
28000;BME280;15328;50.860;10.562;2022-11-15T14:42:37;95783.38;;;15.35;43.41
28000;BME280;15328;50.860;10.562;2022-11-15T14:47:37;95783.00;;;15.11;44.43
28000;BME280;15328;50.860;10.562;2022-11-15T14:52:38;95780.06;;;15.08;45.19
28000;BME280;15328;50.860;10.562;2022-11-15T14:57:38;95764.19;;;14.96;46.18
28000;BME280;15328;50.860;10.562;2022-11-15T15:02:40;95756.94;;;14.92;46.34
28000;BME280;15328;50.860;10.562;2022-11-15T15:07:41;95759.84;;;14.80;46.88
28000;BME280;15328;50.860;10.562;2022-11-15T15:12:42;95764.00;;;14.61;47.46
28000;BME280;15328;50.860;10.562;2022-11-15T15:17:42;95758.81;;;14.44;47.51
28000;BME280;15328;50.860;10.562;2022-11-15T15:22:43;95764.50;;;14.20;48.50
28000;BME280;15328;50.860;10.562;2022-11-15T15:27:44;95765.41;;;13.99;48.14
28000;BME280;15328;50.860;10.562;2022-11-15T15:32:46;95763.41;;;13.84;49.34
28000;BME280;15328;50.860;10.562;2022-11-15T15:37:47;95752.91;;;13.73;49.37
28000;BME280;15328;50.860;10.562;2022-11-15T15:42:48;95748.00;;;13.65;50.08
28000;BME280;15328;50.860;10.562;2022-11-15T15:47:49;95743.03;;;13.46;50.44
28000;BME280;15328;50.860;10.562;2022-11-15T15:52:51;95738.31;;;13.32;50.86
28000;BME280;15328;50.860;10.562;2022-11-15T15:57:52;95731.88;;;13.27;50.80
28000;BME280;15328;50.860;10.562;2022-11-15T16:02:53;95731.81;;;13.22;51.44
28000;BME280;15328;50.860;10.562;2022-11-15T16:07:53;95723.50;;;13.19;51.06
28000;BME280;15328;50.860;10.562;2022-11-15T16:12:55;95716.56;;;13.18;51.69
28000;BME280;15328;50.860;10.562;2022-11-15T16:17:57;95725.84;;;13.15;51.52
28000;BME280;15328;50.860;10.562;2022-11-15T16:22:58;95713.31;;;13.16;51.36
28000;BME280;15328;50.860;10.562;2022-11-15T16:27:59;95708.53;;;13.18;51.53
28000;BME280;15328;50.860;10.562;2022-11-15T16:33:00;95710.47;;;13.22;50.75
28000;BME280;15328;50.860;10.562;2022-11-15T16:38:00;95699.88;;;13.11;50.82
28000;BME280;15328;50.860;10.562;2022-11-15T16:43:00;95699.88;;;13.11;50.83
28000;BME280;15328;50.860;10.562;2022-11-15T16:48:03;95701.22;;;13.13;50.76
28000;BME280;15328;50.860;10.562;2022-11-15T16:53:04;95693.19;;;13.08;51.44
28000;BME280;15328;50.860;10.562;2022-11-15T16:58:04;95697.47;;;13.09;51.26
28000;BME280;15328;50.860;10.562;2022-11-15T17:03:05;95691.75;;;13.00;51.86
28000;BME280;15328;50.860;10.562;2022-11-15T17:08:07;95689.03;;;12.95;51.88
28000;BME280;15328;50.860;10.562;2022-11-15T17:13:10;95682.84;;;12.90;51.97
28000;BME280;15328;50.860;10.562;2022-11-15T17:18:12;95683.22;;;12.77;52.80
28000;BME280;15328;50.860;10.562;2022-11-15T17:23:14;95671.50;;;12.78;52.50
28000;BME280;15328;50.860;10.562;2022-11-15T17:28:15;95674.97;;;12.78;52.54
28000;BME280;15328;50.860;10.562;2022-11-15T17:33:15;95669.00;;;12.71;53.01
28000;BME280;15328;50.860;10.562;2022-11-15T17:38:15;95665.50;;;12.65;52.89
28000;BME280;15328;50.860;10.562;2022-11-15T17:43:16;95668.81;;;12.56;53.36
28000;BME280;15328;50.860;10.562;2022-11-15T17:48:16;95662.31;;;12.47;53.43
28000;BME280;15328;50.860;10.562;2022-11-15T17:53:16;95658.59;;;12.48;53.81
28000;BME280;15328;50.860;10.562;2022-11-15T17:58:17;95650.78;;;12.41;54.21
28000;BME280;15328;50.860;10.562;2022-11-15T18:03:17;95648.78;;;12.31;54.39
28000;BME280;15328;50.860;10.562;2022-11-15T18:08:18;95638.59;;;12.28;54.68
28000;BME280;15328;50.860;10.562;2022-11-15T18:13:20;95638.59;;;12.28;54.61
28000;BME280;15328;50.860;10.562;2022-11-15T18:18:20;95637.88;;;12.33;54.02
28000;BME280;15328;50.860;10.562;2022-11-15T18:23:21;95628.59;;;12.35;53.71
28000;BME280;15328;50.860;10.562;2022-11-15T18:28:21;95620.94;;;12.22;53.98
28000;BME280;15328;50.860;10.562;2022-11-15T18:33:22;95604.31;;;12.15;54.03
28000;BME280;15328;50.860;10.562;2022-11-15T18:38:22;95595.03;;;12.18;53.86
28000;BME280;15328;50.860;10.562;2022-11-15T18:43:23;95594.97;;;12.13;54.03
28000;BME280;15328;50.860;10.562;2022-11-15T18:48:23;95597.13;;;12.16;54.40
28000;BME280;15328;50.860;10.562;2022-11-15T18:53:23;95589.94;;;12.16;54.07
28000;BME280;15328;50.860;10.562;2022-11-15T18:58:24;95584.34;;;12.18;54.11
28000;BME280;15328;50.860;10.562;2022-11-15T19:03:24;95577.41;;;12.17;53.92
28000;BME280;15328;50.860;10.562;2022-11-15T19:08:24;95579.22;;;12.11;53.54
28000;BME280;15328;50.860;10.562;2022-11-15T19:13:25;95570.56;;;12.04;54.20
28000;BME280;15328;50.860;10.562;2022-11-15T19:18:26;95560.41;;;12.01;54.21
28000;BME280;15328;50.860;10.562;2022-11-15T19:23:27;95556.88;;;11.95;54.80
28000;BME280;15328;50.860;10.562;2022-11-15T19:28:27;95544.97;;;12.03;54.11
28000;BME280;15328;50.860;10.562;2022-11-15T19:33:28;95543.81;;;11.94;54.39
28000;BME280;15328;50.860;10.562;2022-11-15T19:38:30;95548.13;;;12.00;54.01
28000;BME280;15328;50.860;10.562;2022-11-15T19:43:31;95532.28;;;11.88;54.67
28000;BME280;15328;50.860;10.562;2022-11-15T19:48:33;95531.22;;;11.89;54.58
28000;BME280;15328;50.860;10.562;2022-11-15T19:53:33;95525.59;;;11.86;54.48
28000;BME280;15328;50.860;10.562;2022-11-15T19:58:34;95518.91;;;11.83;55.12
28000;BME280;15328;50.860;10.562;2022-11-15T20:03:35;95516.34;;;11.76;54.94
28000;BME280;15328;50.860;10.562;2022-11-15T20:08:35;95517.78;;;11.79;54.84
28000;BME280;15328;50.860;10.562;2022-11-15T20:13:36;95513.31;;;11.85;54.73
28000;BME280;15328;50.860;10.562;2022-11-15T20:18:36;95519.81;;;11.77;54.94
28000;BME280;15328;50.860;10.562;2022-11-15T20:23:37;95525.97;;;11.77;55.16
28000;BME280;15328;50.860;10.562;2022-11-15T20:28:38;95523.41;;;11.83;55.09
28000;BME280;15328;50.860;10.562;2022-11-15T20:33:39;95517.53;;;11.81;55.19
28000;BME280;15328;50.860;10.562;2022-11-15T20:38:40;95510.84;;;11.78;55.60
28000;BME280;15328;50.860;10.562;2022-11-15T20:43:40;95515.75;;;11.69;56.26
28000;BME280;15328;50.860;10.562;2022-11-15T20:48:42;95509.84;;;11.67;56.15
28000;BME280;15328;50.860;10.562;2022-11-15T20:53:44;95498.09;;;11.63;56.24
28000;BME280;15328;50.860;10.562;2022-11-15T20:58:45;95492.50;;;11.65;55.79
28000;BME280;15328;50.860;10.562;2022-11-15T21:03:46;95482.72;;;11.70;55.47
28000;BME280;15328;50.860;10.562;2022-11-15T21:08:47;95486.19;;;11.71;55.34
28000;BME280;15328;50.860;10.562;2022-11-15T21:14:06;95468.59;;;11.70;55.57
28000;BME280;15328;50.860;10.562;2022-11-15T21:19:07;95470.50;;;11.74;55.48
28000;BME280;15328;50.860;10.562;2022-11-15T21:24:08;95467.03;;;11.74;54.57
28000;BME280;15328;50.860;10.562;2022-11-15T21:29:09;95473.16;;;11.74;54.83
28000;BME280;15328;50.860;10.562;2022-11-15T21:34:09;95458.50;;;11.72;55.25
28000;BME280;15328;50.860;10.562;2022-11-15T21:39:10;95449.75;;;11.76;54.48
28000;BME280;15328;50.860;10.562;2022-11-15T21:44:10;95449.13;;;11.86;54.02
28000;BME280;15328;50.860;10.562;2022-11-15T21:49:11;95448.66;;;11.94;53.26
28000;BME280;15328;50.860;10.562;2022-11-15T21:54:11;95436.16;;;11.95;52.76
28000;BME280;15328;50.860;10.562;2022-11-15T21:59:11;95428.09;;;11.90;52.44
28000;BME280;15328;50.860;10.562;2022-11-15T22:04:12;95420.66;;;11.92;52.86
28000;BME280;15328;50.860;10.562;2022-11-15T22:09:13;95414.88;;;12.00;52.23
28000;BME280;15328;50.860;10.562;2022-11-15T22:14:13;95411.28;;;12.11;50.79
28000;BME280;15328;50.860;10.562;2022-11-15T22:19:13;95398.63;;;12.28;49.17
28000;BME280;15328;50.860;10.562;2022-11-15T22:24:14;95391.31;;;12.46;47.46
28000;BME280;15328;50.860;10.562;2022-11-15T22:29:14;95396.78;;;12.61;47.05
28000;BME280;15328;50.860;10.562;2022-11-15T22:34:14;95390.25;;;12.84;44.58
28000;BME280;15328;50.860;10.562;2022-11-15T22:39:15;95389.53;;;12.93;45.37
28000;BME280;15328;50.860;10.562;2022-11-15T22:44:15;95371.47;;;13.11;43.55
28000;BME280;15328;50.860;10.562;2022-11-15T22:49:15;95362.66;;;13.10;44.30
28000;BME280;15328;50.860;10.562;2022-11-15T22:54:16;95367.31;;;13.25;43.48
28000;BME280;15328;50.860;10.562;2022-11-15T22:59:16;95359.81;;;13.22;43.81
28000;BME280;15328;50.860;10.562;2022-11-15T23:04:16;95358.50;;;13.24;44.48
28000;BME280;15328;50.860;10.562;2022-11-15T23:09:17;95349.19;;;13.37;44.40
28000;BME280;15328;50.860;10.562;2022-11-15T23:14:17;95343.84;;;13.32;44.26
28000;BME280;15328;50.860;10.562;2022-11-15T23:19:17;95345.97;;;13.35;44.43
28000;BME280;15328;50.860;10.562;2022-11-15T23:24:18;95342.25;;;13.41;44.53
28000;BME280;15328;50.860;10.562;2022-11-15T23:29:20;95339.59;;;13.41;44.08
28000;BME280;15328;50.860;10.562;2022-11-15T23:34:22;95345.50;;;13.43;44.82
28000;BME280;15328;50.860;10.562;2022-11-15T23:39:22;95331.88;;;13.45;44.35
28000;BME280;15328;50.860;10.562;2022-11-15T23:44:23;95319.34;;;13.50;44.34
28000;BME280;15328;50.860;10.562;2022-11-15T23:49:23;95316.94;;;13.49;44.16
28000;BME280;15328;50.860;10.562;2022-11-15T23:54:24;95299.56;;;13.56;44.64
28000;BME280;15328;50.860;10.562;2022-11-15T23:59:24;95291.28;;;13.48;44.24
